This is the latest recevied weather packets stored in our database for station/object F4IXV-10. If no packets are shown the sender has not sent any weather packets the latest 10 day(s).
| Time | Temp. | Humidity | Pressure | Rain* | Wind** | Luminosity | Snow |
|---|---|---|---|---|---|---|---|
| 1777549396 | 21.67° C | 23% | 996 hPa | - | - | - | - |
| 1777548791 | 21.67° C | 23% | 996 hPa | - | - | - | - |
| 1777548186 | 23.89° C | 20% | 996 hPa | - | - | - | - |
| 1777547581 | 35.56° C | 12% | 996 hPa | - | - | - | - |
| 1777546976 | 35.56° C | 12% | 996 hPa | - | - | - | - |
| 1777546371 | 35° C | 13% | 996 hPa | - | - | - | - |
| 1777545766 | 35° C | 12% | 996 hPa | - | - | - | - |
| 1777545161 | 35° C | 13% | 997 hPa | - | - | - | - |
| 1777544556 | 35° C | 13% | 997 hPa | - | - | - | - |
| 1777543951 | 34.44° C | 13% | 997 hPa | - | - | - | - |
| 1777543346 | 23.33° C | 22% | 997 hPa | - | - | - | - |
| 1777542741 | 19.44° C | 25% | 997 hPa | - | - | - | - |
| 1777542136 | 18.89° C | 26% | 997 hPa | - | - | - | - |
| 1777541531 | 18.89° C | 26% | 997 hPa | - | - | - | - |
| 1777540927 | 18.33° C | 26% | 997 hPa | - | - | - | - |
| 1777540322 | 18.33° C | 27% | 997 hPa | - | - | - | - |
| 1777539717 | 17.78° C | 27% | 997 hPa | - | - | - | - |
| 1777539112 | 17.22° C | 27% | 997 hPa | - | - | - | - |
| 1777538507 | 17.22° C | 28% | 997 hPa | - | - | - | - |
| 1777537902 | 16.67° C | 28% | 997 hPa | - | - | - | - |
| 1777537297 | 16.67° C | 28% | 997 hPa | - | - | - | - |
| 1777536692 | 16.11° C | 29% | 997 hPa | - | - | - | - |
| 1777536087 | 15.56° C | 29% | 997 hPa | - | - | - | - |
| 1777535482 | 15.56° C | 29% | 997 hPa | - | - | - | - |
| 1777534877 | 15° C | 29% | 997 hPa | - | - | - | - |
* Rain since midnight (hover to see other rain measurements)
** Current wind speed in m/s (hover to see current wind gust speed)